Mount Auburn, Iowa
Current Conditions -  °F | °C
As of 10:35 AM on Monday 24 Nov 2014 (Local Time) from KVTI Reporting Station
Haze Haze  
Wind Chill: 11°   Ceiling: 1100
Heat Index: 25°   Visibility: 4mi
Dew Point: 22°   Wind: 21mph
Humidity: 87%   Direction: 300°WNW
Pressure: 29.46"   Gusts: 32mph
Location:  42.25°N, 92.09°W
Report Text: KVTI 241635Z AUTO 30018G28KT 4SM BR SCT002 OVC011 M04/M06 A2946 RMK AO2 T10371056
Loading
Personal Weather Stations






























Interactive Weather Map New forecast layout! Learn more

10-Day Weather Forecast

Advertisements
Track Severe Weather on mobile